sensor_id;sensor_type;location;lat;lon;timestamp;P1;durP1;ratioP1;P2;durP2;ratioP2
62951;SDS011;52163;52.212;-1.002;2023-04-25T00:01:33;7.30;;;2.60;;
62951;SDS011;52163;52.212;-1.002;2023-04-25T00:04:01;5.40;;;1.70;;
62951;SDS011;52163;52.212;-1.002;2023-04-25T00:06:27;6.10;;;1.60;;
62951;SDS011;52163;52.212;-1.002;2023-04-25T00:08:55;4.10;;;2.10;;
62951;SDS011;52163;52.212;-1.002;2023-04-25T00:11:21;11.60;;;2.40;;
62951;SDS011;52163;52.212;-1.002;2023-04-25T00:13:47;8.40;;;2.50;;
62951;SDS011;52163;52.212;-1.002;2023-04-25T00:16:14;5.80;;;1.80;;
62951;SDS011;52163;52.212;-1.002;2023-04-25T00:18:41;5.40;;;2.00;;
62951;SDS011;52163;52.212;-1.002;2023-04-25T00:21:07;6.40;;;1.90;;
62951;SDS011;52163;52.212;-1.002;2023-04-25T00:23:32;4.80;;;1.70;;
62951;SDS011;52163;52.212;-1.002;2023-04-25T00:25:57;8.00;;;2.50;;
62951;SDS011;52163;52.212;-1.002;2023-04-25T00:28:23;8.80;;;2.50;;
62951;SDS011;52163;52.212;-1.002;2023-04-25T00:30:48;9.10;;;2.50;;
62951;SDS011;52163;52.212;-1.002;2023-04-25T00:33:13;9.30;;;2.70;;
62951;SDS011;52163;52.212;-1.002;2023-04-25T00:35:39;6.50;;;2.90;;
62951;SDS011;52163;52.212;-1.002;2023-04-25T00:38:05;7.80;;;1.90;;
62951;SDS011;52163;52.212;-1.002;2023-04-25T00:40:30;10.90;;;2.70;;
62951;SDS011;52163;52.212;-1.002;2023-04-25T00:42:55;8.30;;;3.00;;
62951;SDS011;52163;52.212;-1.002;2023-04-25T00:45:21;6.70;;;2.50;;
62951;SDS011;52163;52.212;-1.002;2023-04-25T00:47:46;10.00;;;3.10;;
62951;SDS011;52163;52.212;-1.002;2023-04-25T00:50:14;5.90;;;2.30;;
62951;SDS011;52163;52.212;-1.002;2023-04-25T00:52:40;7.50;;;2.40;;
62951;SDS011;52163;52.212;-1.002;2023-04-25T00:55:09;6.70;;;2.70;;
62951;SDS011;52163;52.212;-1.002;2023-04-25T00:57:36;8.50;;;2.80;;
62951;SDS011;52163;52.212;-1.002;2023-04-25T01:00:03;8.10;;;2.40;;
62951;SDS011;52163;52.212;-1.002;2023-04-25T01:02:31;7.60;;;2.50;;
62951;SDS011;52163;52.212;-1.002;2023-04-25T01:04:58;6.50;;;2.90;;
62951;SDS011;52163;52.212;-1.002;2023-04-25T01:07:24;11.80;;;3.10;;
62951;SDS011;52163;52.212;-1.002;2023-04-25T01:09:51;13.80;;;3.60;;
62951;SDS011;52163;52.212;-1.002;2023-04-25T01:12:17;6.40;;;2.50;;
62951;SDS011;52163;52.212;-1.002;2023-04-25T01:14:42;8.50;;;2.90;;
62951;SDS011;52163;52.212;-1.002;2023-04-25T01:17:08;10.40;;;2.50;;
62951;SDS011;52163;52.212;-1.002;2023-04-25T01:19:35;7.80;;;2.30;;
62951;SDS011;52163;52.212;-1.002;2023-04-25T01:22:00;6.80;;;2.10;;
62951;SDS011;52163;52.212;-1.002;2023-04-25T01:24:26;10.00;;;2.50;;
62951;SDS011;52163;52.212;-1.002;2023-04-25T01:26:53;5.40;;;2.40;;
62951;SDS011;52163;52.212;-1.002;2023-04-25T01:29:21;6.80;;;2.90;;
62951;SDS011;52163;52.212;-1.002;2023-04-25T01:31:48;7.60;;;2.40;;
62951;SDS011;52163;52.212;-1.002;2023-04-25T01:34:13;8.20;;;2.40;;
62951;SDS011;52163;52.212;-1.002;2023-04-25T01:36:39;8.80;;;2.90;;
62951;SDS011;52163;52.212;-1.002;2023-04-25T01:39:05;10.80;;;3.20;;
62951;SDS011;52163;52.212;-1.002;2023-04-25T01:41:32;10.70;;;3.00;;
62951;SDS011;52163;52.212;-1.002;2023-04-25T01:43:57;10.30;;;2.90;;
62951;SDS011;52163;52.212;-1.002;2023-04-25T01:46:23;8.00;;;2.80;;
62951;SDS011;52163;52.212;-1.002;2023-04-25T01:48:49;5.40;;;2.20;;
62951;SDS011;52163;52.212;-1.002;2023-04-25T01:51:14;8.50;;;2.80;;
62951;SDS011;52163;52.212;-1.002;2023-04-25T01:53:40;8.40;;;3.30;;
62951;SDS011;52163;52.212;-1.002;2023-04-25T01:56:06;6.60;;;2.90;;
62951;SDS011;52163;52.212;-1.002;2023-04-25T01:58:32;6.70;;;2.80;;
62951;SDS011;52163;52.212;-1.002;2023-04-25T02:00:57;7.00;;;2.50;;
62951;SDS011;52163;52.212;-1.002;2023-04-25T02:03:23;4.20;;;2.10;;
62951;SDS011;52163;52.212;-1.002;2023-04-25T02:05:48;10.70;;;2.50;;
62951;SDS011;52163;52.212;-1.002;2023-04-25T02:08:14;9.50;;;2.90;;
62951;SDS011;52163;52.212;-1.002;2023-04-25T02:10:41;9.10;;;3.00;;
62951;SDS011;52163;52.212;-1.002;2023-04-25T02:13:06;15.30;;;3.80;;
62951;SDS011;52163;52.212;-1.002;2023-04-25T02:15:32;6.70;;;2.70;;
62951;SDS011;52163;52.212;-1.002;2023-04-25T02:17:57;9.60;;;2.80;;
62951;SDS011;52163;52.212;-1.002;2023-04-25T02:20:25;10.60;;;3.00;;
62951;SDS011;52163;52.212;-1.002;2023-04-25T02:22:51;12.30;;;2.80;;
62951;SDS011;52163;52.212;-1.002;2023-04-25T02:25:17;7.10;;;2.50;;
62951;SDS011;52163;52.212;-1.002;2023-04-25T02:27:45;13.40;;;3.00;;
62951;SDS011;52163;52.212;-1.002;2023-04-25T02:30:11;7.70;;;2.50;;
62951;SDS011;52163;52.212;-1.002;2023-04-25T02:32:38;8.80;;;2.70;;
62951;SDS011;52163;52.212;-1.002;2023-04-25T02:35:04;14.90;;;3.20;;
62951;SDS011;52163;52.212;-1.002;2023-04-25T02:37:31;11.90;;;2.70;;
62951;SDS011;52163;52.212;-1.002;2023-04-25T02:40:00;10.00;;;3.40;;
62951;SDS011;52163;52.212;-1.002;2023-04-25T02:42:27;8.00;;;2.60;;
62951;SDS011;52163;52.212;-1.002;2023-04-25T02:44:52;10.50;;;3.10;;
62951;SDS011;52163;52.212;-1.002;2023-04-25T02:47:18;11.80;;;3.00;;
62951;SDS011;52163;52.212;-1.002;2023-04-25T02:49:43;8.20;;;2.70;;
62951;SDS011;52163;52.212;-1.002;2023-04-25T02:52:10;5.90;;;2.50;;
62951;SDS011;52163;52.212;-1.002;2023-04-25T02:54:36;8.20;;;2.60;;
62951;SDS011;52163;52.212;-1.002;2023-04-25T02:57:01;6.10;;;2.30;;
62951;SDS011;52163;52.212;-1.002;2023-04-25T02:59:28;5.70;;;2.30;;
62951;SDS011;52163;52.212;-1.002;2023-04-25T03:01:53;4.90;;;2.30;;
62951;SDS011;52163;52.212;-1.002;2023-04-25T03:04:19;9.80;;;3.60;;
62951;SDS011;52163;52.212;-1.002;2023-04-25T03:06:44;7.90;;;3.30;;
62951;SDS011;52163;52.212;-1.002;2023-04-25T03:09:10;13.30;;;3.30;;
62951;SDS011;52163;52.212;-1.002;2023-04-25T03:11:36;10.40;;;3.90;;
62951;SDS011;52163;52.212;-1.002;2023-04-25T03:14:03;9.00;;;4.40;;
62951;SDS011;52163;52.212;-1.002;2023-04-25T03:16:29;7.70;;;2.80;;
62951;SDS011;52163;52.212;-1.002;2023-04-25T03:18:54;10.50;;;2.90;;
62951;SDS011;52163;52.212;-1.002;2023-04-25T03:21:19;5.80;;;3.10;;
62951;SDS011;52163;52.212;-1.002;2023-04-25T03:23:45;8.50;;;3.30;;
62951;SDS011;52163;52.212;-1.002;2023-04-25T03:26:10;9.70;;;3.40;;
62951;SDS011;52163;52.212;-1.002;2023-04-25T03:28:36;6.20;;;3.20;;
62951;SDS011;52163;52.212;-1.002;2023-04-25T03:31:01;8.30;;;3.00;;
62951;SDS011;52163;52.212;-1.002;2023-04-25T03:33:26;4.70;;;2.60;;
62951;SDS011;52163;52.212;-1.002;2023-04-25T03:35:52;7.10;;;3.00;;
62951;SDS011;52163;52.212;-1.002;2023-04-25T03:38:18;12.60;;;3.60;;
62951;SDS011;52163;52.212;-1.002;2023-04-25T03:40:43;11.60;;;4.30;;
62951;SDS011;52163;52.212;-1.002;2023-04-25T03:43:08;10.30;;;3.60;;
62951;SDS011;52163;52.212;-1.002;2023-04-25T03:45:34;10.40;;;3.90;;
62951;SDS011;52163;52.212;-1.002;2023-04-25T03:47:59;7.60;;;4.00;;
62951;SDS011;52163;52.212;-1.002;2023-04-25T03:50:25;9.00;;;3.20;;
62951;SDS011;52163;52.212;-1.002;2023-04-25T03:52:50;12.30;;;3.80;;
62951;SDS011;52163;52.212;-1.002;2023-04-25T03:55:15;6.90;;;3.10;;
62951;SDS011;52163;52.212;-1.002;2023-04-25T03:57:41;4.80;;;2.50;;
62951;SDS011;52163;52.212;-1.002;2023-04-25T04:00:06;8.10;;;3.30;;
62951;SDS011;52163;52.212;-1.002;2023-04-25T04:02:33;8.00;;;3.20;;
62951;SDS011;52163;52.212;-1.002;2023-04-25T04:05:00;7.30;;;3.10;;
62951;SDS011;52163;52.212;-1.002;2023-04-25T04:07:25;8.90;;;2.70;;
62951;SDS011;52163;52.212;-1.002;2023-04-25T04:09:51;10.60;;;3.20;;
62951;SDS011;52163;52.212;-1.002;2023-04-25T04:12:16;11.60;;;3.70;;
62951;SDS011;52163;52.212;-1.002;2023-04-25T04:14:41;8.80;;;4.20;;
62951;SDS011;52163;52.212;-1.002;2023-04-25T04:17:07;12.50;;;4.00;;
62951;SDS011;52163;52.212;-1.002;2023-04-25T04:19:32;12.30;;;4.50;;
62951;SDS011;52163;52.212;-1.002;2023-04-25T04:21:58;12.40;;;4.00;;
62951;SDS011;52163;52.212;-1.002;2023-04-25T04:24:23;9.10;;;3.00;;
62951;SDS011;52163;52.212;-1.002;2023-04-25T04:26:49;8.90;;;3.20;;
62951;SDS011;52163;52.212;-1.002;2023-04-25T04:29:15;9.90;;;2.90;;
62951;SDS011;52163;52.212;-1.002;2023-04-25T04:31:47;11.60;;;3.40;;
62951;SDS011;52163;52.212;-1.002;2023-04-25T04:34:13;8.30;;;3.30;;
62951;SDS011;52163;52.212;-1.002;2023-04-25T04:36:38;6.60;;;2.80;;
62951;SDS011;52163;52.212;-1.002;2023-04-25T04:39:05;9.10;;;3.30;;
62951;SDS011;52163;52.212;-1.002;2023-04-25T04:41:31;7.70;;;3.00;;
62951;SDS011;52163;52.212;-1.002;2023-04-25T04:43:57;8.80;;;3.00;;
62951;SDS011;52163;52.212;-1.002;2023-04-25T04:46:22;7.90;;;2.90;;
62951;SDS011;52163;52.212;-1.002;2023-04-25T04:48:49;8.70;;;3.40;;
62951;SDS011;52163;52.212;-1.002;2023-04-25T04:51:15;12.10;;;4.40;;
62951;SDS011;52163;52.212;-1.002;2023-04-25T04:53:40;11.80;;;4.40;;
62951;SDS011;52163;52.212;-1.002;2023-04-25T04:56:06;11.40;;;4.10;;
62951;SDS011;52163;52.212;-1.002;2023-04-25T04:58:31;14.80;;;4.10;;
62951;SDS011;52163;52.212;-1.002;2023-04-25T05:00:56;9.70;;;3.70;;
62951;SDS011;52163;52.212;-1.002;2023-04-25T05:03:22;10.10;;;3.50;;
62951;SDS011;52163;52.212;-1.002;2023-04-25T05:05:47;13.00;;;4.80;;
62951;SDS011;52163;52.212;-1.002;2023-04-25T05:08:13;7.40;;;3.00;;
62951;SDS011;52163;52.212;-1.002;2023-04-25T05:10:38;8.00;;;2.60;;
62951;SDS011;52163;52.212;-1.002;2023-04-25T05:13:03;9.80;;;3.20;;
62951;SDS011;52163;52.212;-1.002;2023-04-25T05:15:29;10.60;;;3.90;;
62951;SDS011;52163;52.212;-1.002;2023-04-25T05:17:54;6.00;;;3.30;;
62951;SDS011;52163;52.212;-1.002;2023-04-25T05:20:20;16.10;;;5.70;;
62951;SDS011;52163;52.212;-1.002;2023-04-25T05:22:45;8.00;;;3.60;;
62951;SDS011;52163;52.212;-1.002;2023-04-25T05:25:10;12.70;;;4.80;;
62951;SDS011;52163;52.212;-1.002;2023-04-25T05:27:36;10.60;;;3.60;;
62951;SDS011;52163;52.212;-1.002;2023-04-25T05:30:02;8.40;;;3.60;;
62951;SDS011;52163;52.212;-1.002;2023-04-25T05:32:29;11.50;;;3.40;;
62951;SDS011;52163;52.212;-1.002;2023-04-25T05:34:55;13.10;;;4.20;;
62951;SDS011;52163;52.212;-1.002;2023-04-25T05:37:20;7.70;;;3.00;;
62951;SDS011;52163;52.212;-1.002;2023-04-25T05:39:46;10.30;;;3.10;;
62951;SDS011;52163;52.212;-1.002;2023-04-25T05:42:11;6.50;;;3.10;;
62951;SDS011;52163;52.212;-1.002;2023-04-25T05:44:36;6.20;;;2.70;;
62951;SDS011;52163;52.212;-1.002;2023-04-25T05:47:02;8.60;;;3.00;;
62951;SDS011;52163;52.212;-1.002;2023-04-25T05:49:29;7.10;;;3.40;;
62951;SDS011;52163;52.212;-1.002;2023-04-25T05:51:54;5.60;;;3.00;;
62951;SDS011;52163;52.212;-1.002;2023-04-25T05:54:20;11.00;;;2.70;;
62951;SDS011;52163;52.212;-1.002;2023-04-25T05:56:45;16.00;;;4.60;;
62951;SDS011;52163;52.212;-1.002;2023-04-25T05:59:11;10.00;;;3.50;;
62951;SDS011;52163;52.212;-1.002;2023-04-25T06:01:36;9.50;;;3.40;;
62951;SDS011;52163;52.212;-1.002;2023-04-25T06:04:01;8.30;;;3.60;;
62951;SDS011;52163;52.212;-1.002;2023-04-25T06:06:27;8.70;;;3.00;;
62951;SDS011;52163;52.212;-1.002;2023-04-25T06:08:52;9.00;;;4.00;;
62951;SDS011;52163;52.212;-1.002;2023-04-25T06:11:18;8.70;;;3.10;;
62951;SDS011;52163;52.212;-1.002;2023-04-25T06:13:43;8.70;;;3.90;;
62951;SDS011;52163;52.212;-1.002;2023-04-25T06:16:10;7.70;;;3.60;;
62951;SDS011;52163;52.212;-1.002;2023-04-25T06:18:36;8.70;;;2.70;;
62951;SDS011;52163;52.212;-1.002;2023-04-25T06:21:01;8.40;;;3.10;;
62951;SDS011;52163;52.212;-1.002;2023-04-25T06:23:27;9.00;;;3.00;;
62951;SDS011;52163;52.212;-1.002;2023-04-25T06:25:53;10.00;;;3.10;;
62951;SDS011;52163;52.212;-1.002;2023-04-25T06:28:18;9.20;;;4.10;;
62951;SDS011;52163;52.212;-1.002;2023-04-25T06:30:44;8.90;;;3.20;;
62951;SDS011;52163;52.212;-1.002;2023-04-25T06:33:09;8.20;;;3.30;;
62951;SDS011;52163;52.212;-1.002;2023-04-25T06:35:35;6.70;;;2.80;;
62951;SDS011;52163;52.212;-1.002;2023-04-25T06:38:00;7.70;;;2.50;;
62951;SDS011;52163;52.212;-1.002;2023-04-25T06:40:26;7.50;;;3.10;;
62951;SDS011;52163;52.212;-1.002;2023-04-25T06:42:51;11.40;;;3.80;;
62951;SDS011;52163;52.212;-1.002;2023-04-25T06:45:16;7.80;;;3.20;;
62951;SDS011;52163;52.212;-1.002;2023-04-25T06:47:42;8.90;;;3.20;;
62951;SDS011;52163;52.212;-1.002;2023-04-25T06:50:08;7.80;;;2.80;;
62951;SDS011;52163;52.212;-1.002;2023-04-25T06:52:34;4.10;;;2.00;;
62951;SDS011;52163;52.212;-1.002;2023-04-25T06:54:59;9.60;;;2.40;;
62951;SDS011;52163;52.212;-1.002;2023-04-25T06:57:25;4.50;;;1.90;;
62951;SDS011;52163;52.212;-1.002;2023-04-25T06:59:50;6.80;;;2.10;;
62951;SDS011;52163;52.212;-1.002;2023-04-25T07:02:16;10.80;;;2.20;;
62951;SDS011;52163;52.212;-1.002;2023-04-25T07:04:41;8.20;;;1.90;;
62951;SDS011;52163;52.212;-1.002;2023-04-25T07:07:06;5.60;;;2.00;;
62951;SDS011;52163;52.212;-1.002;2023-04-25T07:09:32;3.20;;;1.70;;
62951;SDS011;52163;52.212;-1.002;2023-04-25T07:11:59;5.30;;;2.10;;
62951;SDS011;52163;52.212;-1.002;2023-04-25T07:14:26;6.10;;;2.10;;
62951;SDS011;52163;52.212;-1.002;2023-04-25T07:16:52;10.30;;;2.10;;
62951;SDS011;52163;52.212;-1.002;2023-04-25T07:19:18;5.30;;;1.40;;
62951;SDS011;52163;52.212;-1.002;2023-04-25T07:21:43;5.70;;;1.80;;
62951;SDS011;52163;52.212;-1.002;2023-04-25T07:24:09;6.90;;;1.80;;
62951;SDS011;52163;52.212;-1.002;2023-04-25T07:26:34;4.90;;;1.40;;
62951;SDS011;52163;52.212;-1.002;2023-04-25T07:29:00;3.50;;;1.20;;
62951;SDS011;52163;52.212;-1.002;2023-04-25T07:31:25;6.20;;;2.10;;
62951;SDS011;52163;52.212;-1.002;2023-04-25T07:33:51;7.50;;;1.50;;
62951;SDS011;52163;52.212;-1.002;2023-04-25T07:36:16;7.30;;;1.60;;
62951;SDS011;52163;52.212;-1.002;2023-04-25T07:38:41;3.40;;;1.30;;
62951;SDS011;52163;52.212;-1.002;2023-04-25T07:41:07;7.70;;;1.60;;
62951;SDS011;52163;52.212;-1.002;2023-04-25T07:43:32;6.20;;;1.60;;
62951;SDS011;52163;52.212;-1.002;2023-04-25T07:45:58;6.90;;;1.40;;
62951;SDS011;52163;52.212;-1.002;2023-04-25T07:48:23;7.50;;;1.60;;
62951;SDS011;52163;52.212;-1.002;2023-04-25T07:50:49;6.00;;;1.60;;
62951;SDS011;52163;52.212;-1.002;2023-04-25T07:53:14;4.60;;;1.70;;
62951;SDS011;52163;52.212;-1.002;2023-04-25T07:55:40;3.80;;;0.90;;
62951;SDS011;52163;52.212;-1.002;2023-04-25T07:58:05;4.90;;;1.90;;
62951;SDS011;52163;52.212;-1.002;2023-04-25T08:00:31;10.10;;;2.30;;
62951;SDS011;52163;52.212;-1.002;2023-04-25T08:02:57;7.10;;;1.60;;
62951;SDS011;52163;52.212;-1.002;2023-04-25T08:05:22;3.90;;;1.80;;
62951;SDS011;52163;52.212;-1.002;2023-04-25T08:07:48;5.00;;;1.40;;
62951;SDS011;52163;52.212;-1.002;2023-04-25T08:10:13;5.80;;;1.80;;
62951;SDS011;52163;52.212;-1.002;2023-04-25T08:12:38;10.60;;;4.20;;
62951;SDS011;52163;52.212;-1.002;2023-04-25T08:15:05;5.30;;;2.10;;
62951;SDS011;52163;52.212;-1.002;2023-04-25T08:17:31;5.90;;;2.90;;
62951;SDS011;52163;52.212;-1.002;2023-04-25T08:19:57;7.00;;;2.90;;
62951;SDS011;52163;52.212;-1.002;2023-04-25T08:22:22;4.60;;;1.90;;
62951;SDS011;52163;52.212;-1.002;2023-04-25T08:24:48;6.20;;;2.20;;
62951;SDS011;52163;52.212;-1.002;2023-04-25T08:27:13;5.90;;;1.80;;
62951;SDS011;52163;52.212;-1.002;2023-04-25T08:29:38;3.80;;;1.50;;
62951;SDS011;52163;52.212;-1.002;2023-04-25T08:32:04;6.90;;;1.70;;
62951;SDS011;52163;52.212;-1.002;2023-04-25T08:34:29;5.10;;;1.60;;
62951;SDS011;52163;52.212;-1.002;2023-04-25T08:36:55;5.40;;;1.50;;
62951;SDS011;52163;52.212;-1.002;2023-04-25T08:39:20;5.00;;;1.20;;
62951;SDS011;52163;52.212;-1.002;2023-04-25T08:41:46;6.60;;;2.20;;
62951;SDS011;52163;52.212;-1.002;2023-04-25T08:44:11;7.20;;;1.70;;
62951;SDS011;52163;52.212;-1.002;2023-04-25T08:46:40;5.20;;;1.40;;
62951;SDS011;52163;52.212;-1.002;2023-04-25T08:49:06;3.70;;;1.20;;
62951;SDS011;52163;52.212;-1.002;2023-04-25T08:51:38;2.80;;;1.20;;
62951;SDS011;52163;52.212;-1.002;2023-04-25T08:54:11;2.60;;;1.30;;
62951;SDS011;52163;52.212;-1.002;2023-04-25T08:56:41;8.20;;;1.40;;
62951;SDS011;52163;52.212;-1.002;2023-04-25T08:59:13;4.30;;;1.00;;
62951;SDS011;52163;52.212;-1.002;2023-04-25T09:01:39;2.70;;;1.30;;
62951;SDS011;52163;52.212;-1.002;2023-04-25T09:04:05;6.30;;;1.20;;
62951;SDS011;52163;52.212;-1.002;2023-04-25T09:06:31;6.40;;;1.60;;
62951;SDS011;52163;52.212;-1.002;2023-04-25T09:09:06;3.00;;;1.30;;
62951;SDS011;52163;52.212;-1.002;2023-04-25T09:11:33;3.60;;;1.30;;
62951;SDS011;52163;52.212;-1.002;2023-04-25T09:14:20;4.20;;;1.40;;
62951;SDS011;52163;52.212;-1.002;2023-04-25T09:17:04;6.10;;;1.40;;
62951;SDS011;52163;52.212;-1.002;2023-04-25T09:19:33;6.90;;;1.40;;
62951;SDS011;52163;52.212;-1.002;2023-04-25T09:22:02;2.80;;;1.00;;
62951;SDS011;52163;52.212;-1.002;2023-04-25T09:24:39;3.40;;;1.00;;
62951;SDS011;52163;52.212;-1.002;2023-04-25T09:27:07;3.20;;;1.10;;
62951;SDS011;52163;52.212;-1.002;2023-04-25T09:29:36;4.20;;;1.40;;
62951;SDS011;52163;52.212;-1.002;2023-04-25T09:34:44;2.80;;;1.30;;
62951;SDS011;52163;52.212;-1.002;2023-04-25T09:37:16;3.60;;;1.30;;
62951;SDS011;52163;52.212;-1.002;2023-04-25T09:42:13;2.60;;;0.90;;
62951;SDS011;52163;52.212;-1.002;2023-04-25T09:44:44;4.90;;;1.10;;
62951;SDS011;52163;52.212;-1.002;2023-04-25T09:47:11;2.80;;;1.10;;
62951;SDS011;52163;52.212;-1.002;2023-04-25T09:49:39;3.60;;;1.00;;
62951;SDS011;52163;52.212;-1.002;2023-04-25T09:52:06;3.60;;;0.90;;
62951;SDS011;52163;52.212;-1.002;2023-04-25T09:54:32;4.30;;;1.00;;
62951;SDS011;52163;52.212;-1.002;2023-04-25T09:56:57;3.70;;;1.20;;
62951;SDS011;52163;52.212;-1.002;2023-04-25T09:59:32;3.10;;;0.90;;
62951;SDS011;52163;52.212;-1.002;2023-04-25T10:02:01;3.50;;;1.20;;
62951;SDS011;52163;52.212;-1.002;2023-04-25T10:04:27;2.60;;;0.80;;
62951;SDS011;52163;52.212;-1.002;2023-04-25T10:06:56;3.00;;;0.90;;
62951;SDS011;52163;52.212;-1.002;2023-04-25T10:09:23;1.60;;;0.90;;
62951;SDS011;52163;52.212;-1.002;2023-04-25T10:11:50;2.40;;;0.80;;
62951;SDS011;52163;52.212;-1.002;2023-04-25T10:14:18;3.30;;;0.90;;
62951;SDS011;52163;52.212;-1.002;2023-04-25T10:16:44;2.20;;;1.00;;
62951;SDS011;52163;52.212;-1.002;2023-04-25T10:19:12;2.40;;;1.00;;
62951;SDS011;52163;52.212;-1.002;2023-04-25T10:21:46;2.00;;;1.00;;
62951;SDS011;52163;52.212;-1.002;2023-04-25T10:24:16;1.70;;;0.90;;
62951;SDS011;52163;52.212;-1.002;2023-04-25T10:26:41;4.60;;;1.00;;
62951;SDS011;52163;52.212;-1.002;2023-04-25T10:29:08;2.90;;;1.10;;
62951;SDS011;52163;52.212;-1.002;2023-04-25T10:31:37;3.90;;;1.20;;
62951;SDS011;52163;52.212;-1.002;2023-04-25T10:34:10;4.40;;;1.10;;
62951;SDS011;52163;52.212;-1.002;2023-04-25T10:36:35;7.70;;;1.70;;
62951;SDS011;52163;52.212;-1.002;2023-04-25T10:39:03;2.40;;;1.10;;
62951;SDS011;52163;52.212;-1.002;2023-04-25T10:41:32;1.80;;;0.90;;
62951;SDS011;52163;52.212;-1.002;2023-04-25T10:44:12;3.00;;;1.00;;
62951;SDS011;52163;52.212;-1.002;2023-04-25T10:46:39;2.70;;;1.20;;
62951;SDS011;52163;52.212;-1.002;2023-04-25T10:49:05;4.90;;;1.60;;
62951;SDS011;52163;52.212;-1.002;2023-04-25T10:51:33;2.80;;;1.50;;
62951;SDS011;52163;52.212;-1.002;2023-04-25T10:54:05;2.40;;;1.10;;
62951;SDS011;52163;52.212;-1.002;2023-04-25T10:56:38;4.80;;;1.30;;
62951;SDS011;52163;52.212;-1.002;2023-04-25T10:59:08;4.00;;;1.10;;
62951;SDS011;52163;52.212;-1.002;2023-04-25T11:04:03;4.90;;;1.60;;
62951;SDS011;52163;52.212;-1.002;2023-04-25T11:06:36;5.30;;;1.60;;
62951;SDS011;52163;52.212;-1.002;2023-04-25T11:09:08;4.60;;;1.40;;
62951;SDS011;52163;52.212;-1.002;2023-04-25T11:11:38;5.30;;;1.20;;
62951;SDS011;52163;52.212;-1.002;2023-04-25T11:14:03;3.70;;;1.40;;
62951;SDS011;52163;52.212;-1.002;2023-04-25T11:16:29;5.90;;;1.50;;
62951;SDS011;52163;52.212;-1.002;2023-04-25T11:18:57;3.40;;;1.70;;
62951;SDS011;52163;52.212;-1.002;2023-04-25T11:21:22;4.00;;;1.60;;
62951;SDS011;52163;52.212;-1.002;2023-04-25T11:23:48;3.70;;;1.40;;
62951;SDS011;52163;52.212;-1.002;2023-04-25T11:26:13;3.40;;;1.50;;
62951;SDS011;52163;52.212;-1.002;2023-04-25T11:28:40;2.80;;;1.50;;
62951;SDS011;52163;52.212;-1.002;2023-04-25T11:31:05;4.30;;;1.50;;
62951;SDS011;52163;52.212;-1.002;2023-04-25T11:33:31;4.70;;;1.40;;
62951;SDS011;52163;52.212;-1.002;2023-04-25T11:35:56;5.10;;;1.80;;
62951;SDS011;52163;52.212;-1.002;2023-04-25T11:38:22;2.60;;;1.40;;
62951;SDS011;52163;52.212;-1.002;2023-04-25T11:40:52;3.50;;;1.60;;
62951;SDS011;52163;52.212;-1.002;2023-04-25T11:43:20;4.00;;;1.80;;
62951;SDS011;52163;52.212;-1.002;2023-04-25T11:45:48;4.70;;;1.60;;
62951;SDS011;52163;52.212;-1.002;2023-04-25T11:48:14;5.30;;;1.90;;
62951;SDS011;52163;52.212;-1.002;2023-04-25T11:50:40;4.70;;;2.00;;
62951;SDS011;52163;52.212;-1.002;2023-04-25T11:53:06;3.00;;;1.50;;
62951;SDS011;52163;52.212;-1.002;2023-04-25T11:55:33;4.20;;;1.50;;
62951;SDS011;52163;52.212;-1.002;2023-04-25T11:58:00;5.60;;;1.50;;
62951;SDS011;52163;52.212;-1.002;2023-04-25T12:00:26;2.80;;;1.50;;
62951;SDS011;52163;52.212;-1.002;2023-04-25T12:02:53;2.80;;;1.50;;
62951;SDS011;52163;52.212;-1.002;2023-04-25T12:05:19;3.60;;;1.60;;
62951;SDS011;52163;52.212;-1.002;2023-04-25T12:07:46;3.60;;;1.70;;
62951;SDS011;52163;52.212;-1.002;2023-04-25T12:10:13;7.10;;;2.50;;
62951;SDS011;52163;52.212;-1.002;2023-04-25T12:12:44;2.90;;;1.60;;
62951;SDS011;52163;52.212;-1.002;2023-04-25T12:17:44;2.90;;;1.50;;
62951;SDS011;52163;52.212;-1.002;2023-04-25T12:20:17;3.50;;;1.70;;
62951;SDS011;52163;52.212;-1.002;2023-04-25T12:22:49;4.90;;;1.60;;
62951;SDS011;52163;52.212;-1.002;2023-04-25T12:31:01;5.20;;;1.90;;
62951;SDS011;52163;52.212;-1.002;2023-04-25T12:33:38;3.80;;;1.60;;
62951;SDS011;52163;52.212;-1.002;2023-04-25T12:36:05;3.00;;;1.60;;
62951;SDS011;52163;52.212;-1.002;2023-04-25T12:38:36;5.50;;;1.80;;
62951;SDS011;52163;52.212;-1.002;2023-04-25T12:41:03;3.90;;;1.90;;
62951;SDS011;52163;52.212;-1.002;2023-04-25T12:43:29;4.90;;;1.70;;
62951;SDS011;52163;52.212;-1.002;2023-04-25T12:45:55;4.30;;;1.70;;
62951;SDS011;52163;52.212;-1.002;2023-04-25T12:48:21;5.80;;;1.90;;
62951;SDS011;52163;52.212;-1.002;2023-04-25T12:50:48;4.60;;;1.70;;
62951;SDS011;52163;52.212;-1.002;2023-04-25T12:53:18;4.00;;;1.60;;
62951;SDS011;52163;52.212;-1.002;2023-04-25T12:55:45;3.20;;;1.80;;
62951;SDS011;52163;52.212;-1.002;2023-04-25T12:58:13;6.50;;;2.10;;
62951;SDS011;52163;52.212;-1.002;2023-04-25T13:00:40;4.70;;;1.70;;
62951;SDS011;52163;52.212;-1.002;2023-04-25T13:03:06;3.80;;;2.30;;
62951;SDS011;52163;52.212;-1.002;2023-04-25T13:05:31;6.50;;;2.10;;
62951;SDS011;52163;52.212;-1.002;2023-04-25T13:07:56;5.40;;;2.10;;
62951;SDS011;52163;52.212;-1.002;2023-04-25T13:10:22;4.60;;;2.00;;
62951;SDS011;52163;52.212;-1.002;2023-04-25T13:12:48;4.00;;;1.90;;
62951;SDS011;52163;52.212;-1.002;2023-04-25T13:15:13;4.70;;;1.80;;
62951;SDS011;52163;52.212;-1.002;2023-04-25T13:17:41;3.50;;;1.60;;
62951;SDS011;52163;52.212;-1.002;2023-04-25T13:20:07;5.50;;;2.00;;
62951;SDS011;52163;52.212;-1.002;2023-04-25T13:22:40;3.50;;;1.50;;
62951;SDS011;52163;52.212;-1.002;2023-04-25T13:25:07;4.10;;;2.20;;
62951;SDS011;52163;52.212;-1.002;2023-04-25T13:27:33;4.40;;;2.10;;
62951;SDS011;52163;52.212;-1.002;2023-04-25T13:30:01;5.80;;;1.80;;
62951;SDS011;52163;52.212;-1.002;2023-04-25T13:32:32;4.50;;;1.70;;
62951;SDS011;52163;52.212;-1.002;2023-04-25T13:35:05;4.00;;;1.50;;
62951;SDS011;52163;52.212;-1.002;2023-04-25T13:37:32;4.40;;;1.80;;
62951;SDS011;52163;52.212;-1.002;2023-04-25T13:40:07;5.30;;;2.00;;
62951;SDS011;52163;52.212;-1.002;2023-04-25T13:42:35;4.50;;;1.90;;
62951;SDS011;52163;52.212;-1.002;2023-04-25T13:45:01;5.60;;;2.00;;
62951;SDS011;52163;52.212;-1.002;2023-04-25T13:47:28;7.50;;;1.60;;
62951;SDS011;52163;52.212;-1.002;2023-04-25T13:49:55;5.10;;;2.20;;
62951;SDS011;52163;52.212;-1.002;2023-04-25T13:52:20;3.50;;;2.10;;
62951;SDS011;52163;52.212;-1.002;2023-04-25T13:54:46;7.20;;;1.90;;
62951;SDS011;52163;52.212;-1.002;2023-04-25T13:57:12;5.30;;;2.00;;
62951;SDS011;52163;52.212;-1.002;2023-04-25T13:59:38;4.80;;;2.00;;
62951;SDS011;52163;52.212;-1.002;2023-04-25T14:02:05;4.40;;;1.70;;
62951;SDS011;52163;52.212;-1.002;2023-04-25T14:04:32;4.30;;;2.00;;
62951;SDS011;52163;52.212;-1.002;2023-04-25T14:06:58;3.10;;;1.80;;
62951;SDS011;52163;52.212;-1.002;2023-04-25T14:09:23;4.30;;;2.30;;
62951;SDS011;52163;52.212;-1.002;2023-04-25T14:11:51;4.40;;;2.20;;
62951;SDS011;52163;52.212;-1.002;2023-04-25T14:14:20;3.70;;;1.80;;
62951;SDS011;52163;52.212;-1.002;2023-04-25T14:16:46;5.40;;;2.10;;
62951;SDS011;52163;52.212;-1.002;2023-04-25T14:19:13;5.40;;;2.60;;
62951;SDS011;52163;52.212;-1.002;2023-04-25T14:21:39;5.60;;;2.20;;
62951;SDS011;52163;52.212;-1.002;2023-04-25T14:24:04;5.80;;;2.40;;
62951;SDS011;52163;52.212;-1.002;2023-04-25T14:26:30;4.20;;;2.10;;
62951;SDS011;52163;52.212;-1.002;2023-04-25T14:28:56;4.50;;;2.10;;
62951;SDS011;52163;52.212;-1.002;2023-04-25T14:31:21;5.00;;;2.00;;
62951;SDS011;52163;52.212;-1.002;2023-04-25T14:33:47;3.70;;;2.00;;
62951;SDS011;52163;52.212;-1.002;2023-04-25T14:36:12;4.10;;;2.00;;
62951;SDS011;52163;52.212;-1.002;2023-04-25T14:38:39;4.00;;;1.90;;
62951;SDS011;52163;52.212;-1.002;2023-04-25T14:41:04;3.90;;;2.10;;
62951;SDS011;52163;52.212;-1.002;2023-04-25T14:43:30;4.50;;;2.20;;
62951;SDS011;52163;52.212;-1.002;2023-04-25T14:45:56;4.50;;;2.00;;